sensor_id;sensor_type;location;lat;lon;timestamp;temperature;humidity
75819;DHT22;64453;51.944;9.796;2023-03-31T00:00:29;18.30;48.00
75819;DHT22;64453;51.944;9.796;2023-03-31T00:02:57;18.30;47.90
75819;DHT22;64453;51.944;9.796;2023-03-31T00:05:24;18.30;47.90
75819;DHT22;64453;51.944;9.796;2023-03-31T00:07:54;18.10;47.60
75819;DHT22;64453;51.944;9.796;2023-03-31T00:10:25;18.30;47.50
75819;DHT22;64453;51.944;9.796;2023-03-31T00:12:53;18.30;47.50
75819;DHT22;64453;51.944;9.796;2023-03-31T00:15:20;18.30;47.30
75819;DHT22;64453;51.944;9.796;2023-03-31T00:17:47;18.30;47.40
75819;DHT22;64453;51.944;9.796;2023-03-31T00:20:15;18.30;47.50
75819;DHT22;64453;51.944;9.796;2023-03-31T00:22:42;18.30;48.20
75819;DHT22;64453;51.944;9.796;2023-03-31T00:25:12;18.20;47.40
75819;DHT22;64453;51.944;9.796;2023-03-31T00:27:41;18.30;47.60
75819;DHT22;64453;51.944;9.796;2023-03-31T00:30:10;18.10;47.90
75819;DHT22;64453;51.944;9.796;2023-03-31T00:32:38;18.10;47.90
75819;DHT22;64453;51.944;9.796;2023-03-31T00:35:06;18.00;48.30
75819;DHT22;64453;51.944;9.796;2023-03-31T00:37:34;18.00;48.20
75819;DHT22;64453;51.944;9.796;2023-03-31T00:40:03;18.00;48.10
75819;DHT22;64453;51.944;9.796;2023-03-31T00:42:39;18.00;47.80
75819;DHT22;64453;51.944;9.796;2023-03-31T00:45:27;18.00;48.10
75819;DHT22;64453;51.944;9.796;2023-03-31T00:48:02;17.70;47.70
75819;DHT22;64453;51.944;9.796;2023-03-31T00:50:39;18.10;47.90
75819;DHT22;64453;51.944;9.796;2023-03-31T00:53:11;18.00;48.10
75819;DHT22;64453;51.944;9.796;2023-03-31T00:55:45;18.00;48.20
75819;DHT22;64453;51.944;9.796;2023-03-31T00:58:19;17.90;48.20
75819;DHT22;64453;51.944;9.796;2023-03-31T01:00:47;17.90;48.20
75819;DHT22;64453;51.944;9.796;2023-03-31T01:03:18;18.00;48.00
75819;DHT22;64453;51.944;9.796;2023-03-31T01:05:50;18.00;47.80
75819;DHT22;64453;51.944;9.796;2023-03-31T01:08:21;17.90;48.20
75819;DHT22;64453;51.944;9.796;2023-03-31T01:10:53;17.90;48.00
75819;DHT22;64453;51.944;9.796;2023-03-31T01:13:23;17.50;47.60
75819;DHT22;64453;51.944;9.796;2023-03-31T01:15:52;17.70;48.20
75819;DHT22;64453;51.944;9.796;2023-03-31T01:18:20;17.90;47.90
75819;DHT22;64453;51.944;9.796;2023-03-31T01:21:05;17.80;48.20
75819;DHT22;64453;51.944;9.796;2023-03-31T01:24:18;17.60;48.10
75819;DHT22;64453;51.944;9.796;2023-03-31T01:30:47;17.80;47.80
75819;DHT22;64453;51.944;9.796;2023-03-31T01:37:27;17.40;48.10
75819;DHT22;64453;51.944;9.796;2023-03-31T01:40:57;17.70;47.70
75819;DHT22;64453;51.944;9.796;2023-03-31T01:43:36;17.90;47.90
75819;DHT22;64453;51.944;9.796;2023-03-31T01:46:12;17.90;47.60
75819;DHT22;64453;51.944;9.796;2023-03-31T01:48:47;17.70;48.00
75819;DHT22;64453;51.944;9.796;2023-03-31T01:51:25;17.70;48.00
75819;DHT22;64453;51.944;9.796;2023-03-31T01:54:02;17.60;48.30
75819;DHT22;64453;51.944;9.796;2023-03-31T01:56:38;17.80;47.90
75819;DHT22;64453;51.944;9.796;2023-03-31T01:59:09;17.70;48.20
75819;DHT22;64453;51.944;9.796;2023-03-31T02:01:41;17.40;48.10
75819;DHT22;64453;51.944;9.796;2023-03-31T02:04:16;17.60;48.20
75819;DHT22;64453;51.944;9.796;2023-03-31T02:06:47;17.40;48.00
75819;DHT22;64453;51.944;9.796;2023-03-31T02:09:23;17.40;47.90
75819;DHT22;64453;51.944;9.796;2023-03-31T02:11:54;17.00;48.40
75819;DHT22;64453;51.944;9.796;2023-03-31T02:14:25;17.40;48.70
75819;DHT22;64453;51.944;9.796;2023-03-31T02:16:57;17.30;48.40
75819;DHT22;64453;51.944;9.796;2023-03-31T02:19:30;17.50;48.20
75819;DHT22;64453;51.944;9.796;2023-03-31T02:22:00;17.40;48.30
75819;DHT22;64453;51.944;9.796;2023-03-31T02:24:30;17.70;48.30
75819;DHT22;64453;51.944;9.796;2023-03-31T02:27:05;17.80;48.10
75819;DHT22;64453;51.944;9.796;2023-03-31T02:29:34;17.70;48.00
75819;DHT22;64453;51.944;9.796;2023-03-31T02:32:07;17.70;48.10
75819;DHT22;64453;51.944;9.796;2023-03-31T02:34:37;17.60;48.00
75819;DHT22;64453;51.944;9.796;2023-03-31T02:37:05;17.40;48.00
75819;DHT22;64453;51.944;9.796;2023-03-31T02:39:34;17.50;48.40
75819;DHT22;64453;51.944;9.796;2023-03-31T02:42:08;17.40;48.40
75819;DHT22;64453;51.944;9.796;2023-03-31T02:44:36;17.60;48.50
75819;DHT22;64453;51.944;9.796;2023-03-31T02:47:06;17.40;48.70
75819;DHT22;64453;51.944;9.796;2023-03-31T02:49:36;17.60;48.70
75819;DHT22;64453;51.944;9.796;2023-03-31T02:52:15;17.30;48.70
75819;DHT22;64453;51.944;9.796;2023-03-31T02:55:14;17.30;48.80
75819;DHT22;64453;51.944;9.796;2023-03-31T02:57:56;17.40;49.00
75819;DHT22;64453;51.944;9.796;2023-03-31T03:00:40;17.40;48.50
75819;DHT22;64453;51.944;9.796;2023-03-31T03:03:26;17.40;48.60
75819;DHT22;64453;51.944;9.796;2023-03-31T03:06:03;17.40;48.90
75819;DHT22;64453;51.944;9.796;2023-03-31T03:08:49;17.30;48.60
75819;DHT22;64453;51.944;9.796;2023-03-31T03:11:33;16.80;48.90
75819;DHT22;64453;51.944;9.796;2023-03-31T03:14:12;16.60;49.80
75819;DHT22;64453;51.944;9.796;2023-03-31T03:16:45;16.20;50.40
75819;DHT22;64453;51.944;9.796;2023-03-31T03:19:18;15.80;50.60
75819;DHT22;64453;51.944;9.796;2023-03-31T03:21:47;16.00;51.10
75819;DHT22;64453;51.944;9.796;2023-03-31T03:24:16;16.80;50.50
75819;DHT22;64453;51.944;9.796;2023-03-31T03:26:44;17.00;50.10
75819;DHT22;64453;51.944;9.796;2023-03-31T03:29:13;16.90;49.10
75819;DHT22;64453;51.944;9.796;2023-03-31T03:31:42;17.10;49.40
75819;DHT22;64453;51.944;9.796;2023-03-31T03:34:10;17.20;49.50
75819;DHT22;64453;51.944;9.796;2023-03-31T03:36:37;17.10;49.40
75819;DHT22;64453;51.944;9.796;2023-03-31T03:39:06;17.00;49.30
75819;DHT22;64453;51.944;9.796;2023-03-31T03:41:33;17.30;49.30
75819;DHT22;64453;51.944;9.796;2023-03-31T03:44:02;17.40;49.30
75819;DHT22;64453;51.944;9.796;2023-03-31T03:46:30;17.30;49.10
75819;DHT22;64453;51.944;9.796;2023-03-31T03:48:58;17.30;49.10
75819;DHT22;64453;51.944;9.796;2023-03-31T03:51:24;17.40;48.70
75819;DHT22;64453;51.944;9.796;2023-03-31T03:53:52;17.30;48.80
75819;DHT22;64453;51.944;9.796;2023-03-31T03:56:19;17.20;48.80
75819;DHT22;64453;51.944;9.796;2023-03-31T03:58:47;17.30;49.20
75819;DHT22;64453;51.944;9.796;2023-03-31T04:01:14;17.60;49.00
75819;DHT22;64453;51.944;9.796;2023-03-31T04:03:43;17.30;48.90
75819;DHT22;64453;51.944;9.796;2023-03-31T04:06:12;17.50;49.10
75819;DHT22;64453;51.944;9.796;2023-03-31T04:08:39;17.10;48.70
75819;DHT22;64453;51.944;9.796;2023-03-31T04:11:11;17.40;49.10
75819;DHT22;64453;51.944;9.796;2023-03-31T04:13:41;17.50;49.00
75819;DHT22;64453;51.944;9.796;2023-03-31T04:16:08;17.40;48.90
75819;DHT22;64453;51.944;9.796;2023-03-31T04:18:36;17.50;49.20
75819;DHT22;64453;51.944;9.796;2023-03-31T04:21:09;17.60;49.00
75819;DHT22;64453;51.944;9.796;2023-03-31T04:23:40;17.60;49.10
75819;DHT22;64453;51.944;9.796;2023-03-31T04:26:11;17.60;49.10
75819;DHT22;64453;51.944;9.796;2023-03-31T04:28:39;17.70;48.80
75819;DHT22;64453;51.944;9.796;2023-03-31T04:31:08;17.30;48.80
75819;DHT22;64453;51.944;9.796;2023-03-31T04:33:41;17.10;48.90
75819;DHT22;64453;51.944;9.796;2023-03-31T04:36:12;17.30;49.10
75819;DHT22;64453;51.944;9.796;2023-03-31T04:38:53;17.50;49.00
75819;DHT22;64453;51.944;9.796;2023-03-31T04:41:21;17.50;49.00
75819;DHT22;64453;51.944;9.796;2023-03-31T04:43:49;17.50;48.90
75819;DHT22;64453;51.944;9.796;2023-03-31T04:46:17;17.60;48.90
75819;DHT22;64453;51.944;9.796;2023-03-31T04:48:44;17.60;48.90
75819;DHT22;64453;51.944;9.796;2023-03-31T04:51:14;17.60;48.90
75819;DHT22;64453;51.944;9.796;2023-03-31T04:53:41;17.50;49.00
75819;DHT22;64453;51.944;9.796;2023-03-31T04:56:09;17.50;49.10
75819;DHT22;64453;51.944;9.796;2023-03-31T04:58:38;17.60;49.10
75819;DHT22;64453;51.944;9.796;2023-03-31T05:01:05;17.50;48.70
75819;DHT22;64453;51.944;9.796;2023-03-31T05:03:33;17.50;48.80
75819;DHT22;64453;51.944;9.796;2023-03-31T05:06:00;17.60;49.10
75819;DHT22;64453;51.944;9.796;2023-03-31T05:08:29;17.50;49.10
75819;DHT22;64453;51.944;9.796;2023-03-31T05:10:56;17.70;48.80
75819;DHT22;64453;51.944;9.796;2023-03-31T05:13:23;17.50;48.90
75819;DHT22;64453;51.944;9.796;2023-03-31T05:15:51;17.60;48.80
75819;DHT22;64453;51.944;9.796;2023-03-31T05:18:18;17.70;49.10
75819;DHT22;64453;51.944;9.796;2023-03-31T05:20:46;17.30;49.30
75819;DHT22;64453;51.944;9.796;2023-03-31T05:23:14;16.80;50.20
75819;DHT22;64453;51.944;9.796;2023-03-31T05:25:44;16.70;50.10
75819;DHT22;64453;51.944;9.796;2023-03-31T05:28:11;17.00;50.20
75819;DHT22;64453;51.944;9.796;2023-03-31T05:30:38;17.10;49.80
75819;DHT22;64453;51.944;9.796;2023-03-31T05:33:08;16.90;50.30
75819;DHT22;64453;51.944;9.796;2023-03-31T05:35:35;16.80;50.20
75819;DHT22;64453;51.944;9.796;2023-03-31T05:38:03;17.10;50.40
75819;DHT22;64453;51.944;9.796;2023-03-31T05:40:31;17.00;50.60
75819;DHT22;64453;51.944;9.796;2023-03-31T05:42:59;17.20;50.60
75819;DHT22;64453;51.944;9.796;2023-03-31T05:45:27;17.50;50.10
75819;DHT22;64453;51.944;9.796;2023-03-31T05:47:54;17.40;50.00
75819;DHT22;64453;51.944;9.796;2023-03-31T05:50:21;16.80;49.50
75819;DHT22;64453;51.944;9.796;2023-03-31T05:52:48;16.90;49.80
75819;DHT22;64453;51.944;9.796;2023-03-31T05:55:16;17.40;50.10
75819;DHT22;64453;51.944;9.796;2023-03-31T05:57:43;17.60;49.90
75819;DHT22;64453;51.944;9.796;2023-03-31T06:00:14;17.50;50.00
75819;DHT22;64453;51.944;9.796;2023-03-31T06:02:42;17.60;49.60
75819;DHT22;64453;51.944;9.796;2023-03-31T06:05:09;17.70;49.80
75819;DHT22;64453;51.944;9.796;2023-03-31T06:07:36;17.80;49.60
75819;DHT22;64453;51.944;9.796;2023-03-31T06:10:04;17.80;49.80
75819;DHT22;64453;51.944;9.796;2023-03-31T06:12:35;17.70;49.80
75819;DHT22;64453;51.944;9.796;2023-03-31T06:15:02;17.70;50.70
75819;DHT22;64453;51.944;9.796;2023-03-31T06:17:33;17.80;50.30
75819;DHT22;64453;51.944;9.796;2023-03-31T06:20:00;17.80;50.40
75819;DHT22;64453;51.944;9.796;2023-03-31T06:22:32;17.80;50.60
75819;DHT22;64453;51.944;9.796;2023-03-31T06:24:59;17.70;51.40
75819;DHT22;64453;51.944;9.796;2023-03-31T06:27:26;17.60;51.00
75819;DHT22;64453;51.944;9.796;2023-03-31T06:29:53;17.60;50.90
75819;DHT22;64453;51.944;9.796;2023-03-31T06:32:21;17.70;51.80
75819;DHT22;64453;51.944;9.796;2023-03-31T06:34:49;17.50;52.00
75819;DHT22;64453;51.944;9.796;2023-03-31T06:37:18;17.40;51.80
75819;DHT22;64453;51.944;9.796;2023-03-31T06:39:45;17.60;52.00
75819;DHT22;64453;51.944;9.796;2023-03-31T06:42:13;17.50;51.50
75819;DHT22;64453;51.944;9.796;2023-03-31T06:44:40;17.70;51.90
75819;DHT22;64453;51.944;9.796;2023-03-31T06:47:09;17.60;52.10
75819;DHT22;64453;51.944;9.796;2023-03-31T06:49:36;17.70;52.10
75819;DHT22;64453;51.944;9.796;2023-03-31T06:52:05;17.70;52.00
75819;DHT22;64453;51.944;9.796;2023-03-31T06:54:32;17.60;52.30
75819;DHT22;64453;51.944;9.796;2023-03-31T06:56:59;17.60;52.30
75819;DHT22;64453;51.944;9.796;2023-03-31T06:59:27;17.50;51.60
75819;DHT22;64453;51.944;9.796;2023-03-31T07:01:54;17.70;52.10
75819;DHT22;64453;51.944;9.796;2023-03-31T07:04:22;17.50;51.70
75819;DHT22;64453;51.944;9.796;2023-03-31T07:06:49;17.60;52.30
75819;DHT22;64453;51.944;9.796;2023-03-31T07:09:18;17.70;52.60
75819;DHT22;64453;51.944;9.796;2023-03-31T07:11:48;17.70;51.90
75819;DHT22;64453;51.944;9.796;2023-03-31T07:14:15;17.70;52.00
75819;DHT22;64453;51.944;9.796;2023-03-31T07:16:43;17.70;51.70
75819;DHT22;64453;51.944;9.796;2023-03-31T07:19:10;17.70;51.00
75819;DHT22;64453;51.944;9.796;2023-03-31T07:21:39;17.90;51.00
75819;DHT22;64453;51.944;9.796;2023-03-31T07:24:07;17.90;51.30
75819;DHT22;64453;51.944;9.796;2023-03-31T07:26:35;17.70;52.20
75819;DHT22;64453;51.944;9.796;2023-03-31T07:29:02;17.80;52.40
75819;DHT22;64453;51.944;9.796;2023-03-31T07:31:30;17.90;52.10
75819;DHT22;64453;51.944;9.796;2023-03-31T07:33:57;17.60;51.10
75819;DHT22;64453;51.944;9.796;2023-03-31T07:36:24;17.80;52.10
75819;DHT22;64453;51.944;9.796;2023-03-31T07:38:51;17.90;52.40
75819;DHT22;64453;51.944;9.796;2023-03-31T07:41:19;17.90;52.30
75819;DHT22;64453;51.944;9.796;2023-03-31T07:43:49;18.10;52.20
75819;DHT22;64453;51.944;9.796;2023-03-31T07:46:19;18.10;52.10
75819;DHT22;64453;51.944;9.796;2023-03-31T07:48:47;17.90;51.30
75819;DHT22;64453;51.944;9.796;2023-03-31T07:51:15;17.80;52.20
75819;DHT22;64453;51.944;9.796;2023-03-31T07:53:43;17.20;51.90
75819;DHT22;64453;51.944;9.796;2023-03-31T07:56:11;17.60;52.40
75819;DHT22;64453;51.944;9.796;2023-03-31T07:58:38;17.70;52.30
75819;DHT22;64453;51.944;9.796;2023-03-31T08:01:07;17.70;52.30
75819;DHT22;64453;51.944;9.796;2023-03-31T08:03:37;17.90;51.80
75819;DHT22;64453;51.944;9.796;2023-03-31T08:06:05;18.10;52.10
75819;DHT22;64453;51.944;9.796;2023-03-31T08:08:32;17.70;51.70
75819;DHT22;64453;51.944;9.796;2023-03-31T08:10:59;17.70;51.90
75819;DHT22;64453;51.944;9.796;2023-03-31T08:13:26;18.00;52.10
75819;DHT22;64453;51.944;9.796;2023-03-31T08:15:53;18.20;51.90
75819;DHT22;64453;51.944;9.796;2023-03-31T08:18:26;18.20;51.60
75819;DHT22;64453;51.944;9.796;2023-03-31T08:20:53;17.80;50.80
75819;DHT22;64453;51.944;9.796;2023-03-31T08:23:20;17.90;50.90
75819;DHT22;64453;51.944;9.796;2023-03-31T08:25:47;17.90;51.50
75819;DHT22;64453;51.944;9.796;2023-03-31T08:28:14;17.30;51.70
75819;DHT22;64453;51.944;9.796;2023-03-31T08:30:42;17.80;52.00
75819;DHT22;64453;51.944;9.796;2023-03-31T08:33:09;18.00;51.40
75819;DHT22;64453;51.944;9.796;2023-03-31T08:35:39;17.80;51.30
75819;DHT22;64453;51.944;9.796;2023-03-31T08:38:07;17.80;51.90
75819;DHT22;64453;51.944;9.796;2023-03-31T08:40:34;17.60;51.90
75819;DHT22;64453;51.944;9.796;2023-03-31T08:43:11;17.60;52.30
75819;DHT22;64453;51.944;9.796;2023-03-31T08:45:43;17.80;51.00
75819;DHT22;64453;51.944;9.796;2023-03-31T08:48:18;17.80;52.30
75819;DHT22;64453;51.944;9.796;2023-03-31T08:50:53;17.80;51.20
75819;DHT22;64453;51.944;9.796;2023-03-31T08:53:27;17.90;51.70
75819;DHT22;64453;51.944;9.796;2023-03-31T08:55:57;17.80;51.50
75819;DHT22;64453;51.944;9.796;2023-03-31T08:58:34;17.80;51.50
75819;DHT22;64453;51.944;9.796;2023-03-31T09:01:14;17.90;52.30
75819;DHT22;64453;51.944;9.796;2023-03-31T09:04:03;17.80;52.20
75819;DHT22;64453;51.944;9.796;2023-03-31T09:06:43;18.00;52.20
75819;DHT22;64453;51.944;9.796;2023-03-31T09:09:26;18.00;51.80
75819;DHT22;64453;51.944;9.796;2023-03-31T09:12:18;17.10;52.80
75819;DHT22;64453;51.944;9.796;2023-03-31T09:14:50;17.60;52.90
75819;DHT22;64453;51.944;9.796;2023-03-31T09:17:24;17.60;52.60
75819;DHT22;64453;51.944;9.796;2023-03-31T09:19:55;17.70;52.50
75819;DHT22;64453;51.944;9.796;2023-03-31T09:22:30;17.50;52.30
75819;DHT22;64453;51.944;9.796;2023-03-31T09:25:04;17.60;52.30
75819;DHT22;64453;51.944;9.796;2023-03-31T09:27:33;17.80;52.00
75819;DHT22;64453;51.944;9.796;2023-03-31T09:30:04;17.50;50.90
75819;DHT22;64453;51.944;9.796;2023-03-31T09:32:39;17.40;51.80
75819;DHT22;64453;51.944;9.796;2023-03-31T09:35:15;17.60;52.20
75819;DHT22;64453;51.944;9.796;2023-03-31T09:37:48;17.50;51.50
75819;DHT22;64453;51.944;9.796;2023-03-31T09:40:18;17.50;52.20
75819;DHT22;64453;51.944;9.796;2023-03-31T09:42:47;17.70;51.50
75819;DHT22;64453;51.944;9.796;2023-03-31T09:45:19;17.80;50.90
75819;DHT22;64453;51.944;9.796;2023-03-31T09:47:50;17.50;50.80
75819;DHT22;64453;51.944;9.796;2023-03-31T09:50:19;17.70;51.40
75819;DHT22;64453;51.944;9.796;2023-03-31T09:52:50;17.60;50.50
75819;DHT22;64453;51.944;9.796;2023-03-31T09:55:21;17.50;50.40
75819;DHT22;64453;51.944;9.796;2023-03-31T09:57:51;17.60;50.80
75819;DHT22;64453;51.944;9.796;2023-03-31T10:00:21;17.40;51.50
75819;DHT22;64453;51.944;9.796;2023-03-31T10:02:50;17.50;51.50
75819;DHT22;64453;51.944;9.796;2023-03-31T10:05:25;17.50;50.90
75819;DHT22;64453;51.944;9.796;2023-03-31T10:08:13;17.30;51.60
75819;DHT22;64453;51.944;9.796;2023-03-31T10:10:51;17.30;50.60
75819;DHT22;64453;51.944;9.796;2023-03-31T10:13:21;17.30;51.20
75819;DHT22;64453;51.944;9.796;2023-03-31T10:15:52;17.40;51.20
75819;DHT22;64453;51.944;9.796;2023-03-31T10:18:21;17.40;51.30
75819;DHT22;64453;51.944;9.796;2023-03-31T10:20:59;17.60;50.20
75819;DHT22;64453;51.944;9.796;2023-03-31T10:23:30;17.60;50.20
75819;DHT22;64453;51.944;9.796;2023-03-31T10:25:59;17.40;50.50
75819;DHT22;64453;51.944;9.796;2023-03-31T10:28:31;17.80;51.40
75819;DHT22;64453;51.944;9.796;2023-03-31T10:31:00;17.70;51.60
75819;DHT22;64453;51.944;9.796;2023-03-31T10:33:30;17.70;50.70
75819;DHT22;64453;51.944;9.796;2023-03-31T10:36:00;17.50;51.60
75819;DHT22;64453;51.944;9.796;2023-03-31T10:38:33;17.60;51.10
75819;DHT22;64453;51.944;9.796;2023-03-31T10:41:02;17.60;51.10
75819;DHT22;64453;51.944;9.796;2023-03-31T10:43:36;17.80;51.20
75819;DHT22;64453;51.944;9.796;2023-03-31T10:46:04;18.00;51.50
75819;DHT22;64453;51.944;9.796;2023-03-31T10:48:33;18.00;51.50
75819;DHT22;64453;51.944;9.796;2023-03-31T10:51:05;17.90;50.30
75819;DHT22;64453;51.944;9.796;2023-03-31T10:53:43;18.00;51.30
75819;DHT22;64453;51.944;9.796;2023-03-31T10:56:33;18.00;51.40
75819;DHT22;64453;51.944;9.796;2023-03-31T10:59:16;18.00;52.50
75819;DHT22;64453;51.944;9.796;2023-03-31T11:01:57;18.00;51.90
75819;DHT22;64453;51.944;9.796;2023-03-31T11:04:55;17.80;51.00
75819;DHT22;64453;51.944;9.796;2023-03-31T11:07:39;17.80;51.60
75819;DHT22;64453;51.944;9.796;2023-03-31T11:10:45;18.00;52.70
75819;DHT22;64453;51.944;9.796;2023-03-31T11:13:22;18.10;53.20
75819;DHT22;64453;51.944;9.796;2023-03-31T11:15:58;18.10;53.10
75819;DHT22;64453;51.944;9.796;2023-03-31T11:18:35;18.20;52.30
75819;DHT22;64453;51.944;9.796;2023-03-31T11:21:18;18.20;52.20
75819;DHT22;64453;51.944;9.796;2023-03-31T11:23:53;18.20;51.50
75819;DHT22;64453;51.944;9.796;2023-03-31T11:26:35;18.20;51.50
75819;DHT22;64453;51.944;9.796;2023-03-31T11:29:21;18.20;51.80
75819;DHT22;64453;51.944;9.796;2023-03-31T11:32:01;18.20;51.20
75819;DHT22;64453;51.944;9.796;2023-03-31T11:34:56;18.30;52.20
75819;DHT22;64453;51.944;9.796;2023-03-31T11:37:48;18.30;51.90
75819;DHT22;64453;51.944;9.796;2023-03-31T11:40:34;18.00;52.20
75819;DHT22;64453;51.944;9.796;2023-03-31T11:43:12;17.50;50.70
75819;DHT22;64453;51.944;9.796;2023-03-31T11:45:46;17.70;50.50
75819;DHT22;64453;51.944;9.796;2023-03-31T11:48:20;17.90;51.00
75819;DHT22;64453;51.944;9.796;2023-03-31T11:50:52;17.90;50.70
75819;DHT22;64453;51.944;9.796;2023-03-31T11:53:25;17.70;51.30
75819;DHT22;64453;51.944;9.796;2023-03-31T11:55:57;17.70;52.20
75819;DHT22;64453;51.944;9.796;2023-03-31T11:58:35;17.30;54.10
75819;DHT22;64453;51.944;9.796;2023-03-31T12:01:08;16.60;55.20
75819;DHT22;64453;51.944;9.796;2023-03-31T12:03:47;16.70;56.60
75819;DHT22;64453;51.944;9.796;2023-03-31T12:06:20;17.20;55.70
75819;DHT22;64453;51.944;9.796;2023-03-31T12:08:52;17.60;55.20
75819;DHT22;64453;51.944;9.796;2023-03-31T12:11:28;17.70;54.40
75819;DHT22;64453;51.944;9.796;2023-03-31T12:14:07;17.70;53.60
75819;DHT22;64453;51.944;9.796;2023-03-31T12:16:44;17.80;53.30
75819;DHT22;64453;51.944;9.796;2023-03-31T12:19:15;17.90;53.40
75819;DHT22;64453;51.944;9.796;2023-03-31T12:21:49;17.80;52.60
75819;DHT22;64453;51.944;9.796;2023-03-31T12:24:19;17.30;50.50
75819;DHT22;64453;51.944;9.796;2023-03-31T12:26:52;16.90;51.70
75819;DHT22;64453;51.944;9.796;2023-03-31T12:29:29;16.90;50.90
75819;DHT22;64453;51.944;9.796;2023-03-31T12:32:02;17.00;51.80
75819;DHT22;64453;51.944;9.796;2023-03-31T12:34:37;16.90;51.90
75819;DHT22;64453;51.944;9.796;2023-03-31T12:37:50;16.60;51.70
75819;DHT22;64453;51.944;9.796;2023-03-31T12:40:49;17.10;53.20
75819;DHT22;64453;51.944;9.796;2023-03-31T12:43:44;17.50;54.70
75819;DHT22;64453;51.944;9.796;2023-03-31T12:49:38;17.80;53.20
75819;DHT22;64453;51.944;9.796;2023-03-31T12:52:17;17.80;51.70
75819;DHT22;64453;51.944;9.796;2023-03-31T12:55:05;18.10;52.80
75819;DHT22;64453;51.944;9.796;2023-03-31T13:01:09;18.10;51.80
75819;DHT22;64453;51.944;9.796;2023-03-31T13:04:07;18.30;53.40
75819;DHT22;64453;51.944;9.796;2023-03-31T13:06:56;18.40;53.20
75819;DHT22;64453;51.944;9.796;2023-03-31T13:09:44;18.50;53.40
75819;DHT22;64453;51.944;9.796;2023-03-31T13:12:20;18.40;52.30
75819;DHT22;64453;51.944;9.796;2023-03-31T13:14:51;18.40;52.70
75819;DHT22;64453;51.944;9.796;2023-03-31T13:17:26;18.50;53.40
75819;DHT22;64453;51.944;9.796;2023-03-31T13:20:15;18.50;53.20
75819;DHT22;64453;51.944;9.796;2023-03-31T13:22:59;18.60;51.70
75819;DHT22;64453;51.944;9.796;2023-03-31T13:25:44;18.50;51.30
75819;DHT22;64453;51.944;9.796;2023-03-31T13:31:08;18.60;51.50
75819;DHT22;64453;51.944;9.796;2023-03-31T13:33:50;18.50;52.50
75819;DHT22;64453;51.944;9.796;2023-03-31T13:36:48;18.50;52.30
75819;DHT22;64453;51.944;9.796;2023-03-31T13:39:47;18.10;51.60
75819;DHT22;64453;51.944;9.796;2023-03-31T13:42:52;18.20;52.30
75819;DHT22;64453;51.944;9.796;2023-03-31T13:45:41;18.30;53.10
75819;DHT22;64453;51.944;9.796;2023-03-31T13:48:23;17.70;51.30
75819;DHT22;64453;51.944;9.796;2023-03-31T13:51:15;17.70;53.30
75819;DHT22;64453;51.944;9.796;2023-03-31T13:54:02;17.30;51.20
75819;DHT22;64453;51.944;9.796;2023-03-31T13:57:11;17.50;52.30
75819;DHT22;64453;51.944;9.796;2023-03-31T14:00:09;17.60;51.40
75819;DHT22;64453;51.944;9.796;2023-03-31T14:02:55;17.70;51.20
75819;DHT22;64453;51.944;9.796;2023-03-31T14:05:42;18.20;50.30
75819;DHT22;64453;51.944;9.796;2023-03-31T14:08:15;18.20;50.50
75819;DHT22;64453;51.944;9.796;2023-03-31T14:10:46;18.30;49.90
75819;DHT22;64453;51.944;9.796;2023-03-31T14:13:15;18.60;50.10
75819;DHT22;64453;51.944;9.796;2023-03-31T14:15:46;18.70;49.80
75819;DHT22;64453;51.944;9.796;2023-03-31T14:18:20;18.40;49.40
75819;DHT22;64453;51.944;9.796;2023-03-31T14:21:00;16.80;50.40
75819;DHT22;64453;51.944;9.796;2023-03-31T14:23:43;17.20;51.70
75819;DHT22;64453;51.944;9.796;2023-03-31T14:26:35;17.10;52.00
75819;DHT22;64453;51.944;9.796;2023-03-31T14:29:14;17.30;51.60
75819;DHT22;64453;51.944;9.796;2023-03-31T14:31:49;17.40;51.50
75819;DHT22;64453;51.944;9.796;2023-03-31T14:34:38;16.80;52.50
75819;DHT22;64453;51.944;9.796;2023-03-31T14:37:12;16.60;53.30
75819;DHT22;64453;51.944;9.796;2023-03-31T14:39:45;16.90;52.60
75819;DHT22;64453;51.944;9.796;2023-03-31T14:42:20;17.20;52.80
75819;DHT22;64453;51.944;9.796;2023-03-31T14:44:54;17.30;50.40
75819;DHT22;64453;51.944;9.796;2023-03-31T14:47:23;17.80;50.50
75819;DHT22;64453;51.944;9.796;2023-03-31T14:50:00;18.10;49.60
75819;DHT22;64453;51.944;9.796;2023-03-31T14:52:31;18.20;49.10
75819;DHT22;64453;51.944;9.796;2023-03-31T14:55:00;18.00;48.90
75819;DHT22;64453;51.944;9.796;2023-03-31T14:57:30;18.10;48.90
75819;DHT22;64453;51.944;9.796;2023-03-31T15:00:02;18.00;49.60
75819;DHT22;64453;51.944;9.796;2023-03-31T15:02:36;18.20;48.60
75819;DHT22;64453;51.944;9.796;2023-03-31T15:05:08;18.00;48.60
75819;DHT22;64453;51.944;9.796;2023-03-31T15:07:43;18.20;48.60
75819;DHT22;64453;51.944;9.796;2023-03-31T15:10:16;17.90;49.20
75819;DHT22;64453;51.944;9.796;2023-03-31T15:12:48;17.60;49.10
75819;DHT22;64453;51.944;9.796;2023-03-31T15:15:18;18.20;49.40
75819;DHT22;64453;51.944;9.796;2023-03-31T15:17:46;17.80;49.10
75819;DHT22;64453;51.944;9.796;2023-03-31T15:20:36;17.70;49.10
75819;DHT22;64453;51.944;9.796;2023-03-31T15:23:19;17.70;49.00
75819;DHT22;64453;51.944;9.796;2023-03-31T15:25:49;18.10;48.30
75819;DHT22;64453;51.944;9.796;2023-03-31T15:28:21;18.30;48.40
75819;DHT22;64453;51.944;9.796;2023-03-31T15:30:49;18.50;47.90
75819;DHT22;64453;51.944;9.796;2023-03-31T15:33:21;18.70;48.20
75819;DHT22;64453;51.944;9.796;2023-03-31T15:35:50;18.20;48.20
75819;DHT22;64453;51.944;9.796;2023-03-31T15:38:17;17.60;47.20
75819;DHT22;64453;51.944;9.796;2023-03-31T15:40:50;17.40;48.90
75819;DHT22;64453;51.944;9.796;2023-03-31T15:43:28;17.30;48.40
75819;DHT22;64453;51.944;9.796;2023-03-31T15:45:57;17.50;49.40
75819;DHT22;64453;51.944;9.796;2023-03-31T15:48:29;18.00;49.70
75819;DHT22;64453;51.944;9.796;2023-03-31T15:51:01;18.00;48.90
75819;DHT22;64453;51.944;9.796;2023-03-31T15:53:35;18.50;48.70
75819;DHT22;64453;51.944;9.796;2023-03-31T15:56:04;18.20;47.70
75819;DHT22;64453;51.944;9.796;2023-03-31T15:58:54;18.00;48.70
75819;DHT22;64453;51.944;9.796;2023-03-31T16:01:26;18.20;49.10
75819;DHT22;64453;51.944;9.796;2023-03-31T16:03:57;18.30;48.60
75819;DHT22;64453;51.944;9.796;2023-03-31T16:06:35;18.50;48.40
75819;DHT22;64453;51.944;9.796;2023-03-31T16:09:06;17.70;48.80
75819;DHT22;64453;51.944;9.796;2023-03-31T16:11:39;18.00;48.60
75819;DHT22;64453;51.944;9.796;2023-03-31T16:14:13;18.00;48.50
75819;DHT22;64453;51.944;9.796;2023-03-31T16:16:46;18.00;48.90
75819;DHT22;64453;51.944;9.796;2023-03-31T16:19:17;17.60;48.60
75819;DHT22;64453;51.944;9.796;2023-03-31T16:21:48;18.30;49.40
75819;DHT22;64453;51.944;9.796;2023-03-31T16:24:18;18.00;48.70
75819;DHT22;64453;51.944;9.796;2023-03-31T16:26:47;17.50;49.40